Time;durP1;ratioP1;P1;durP2;ratioP2;P2;SDS_P1;SDS_P2;PMS_P1;PMS_P2;Temp;Humidity;BMP_temperature;BMP_pressure;BME280_temperature;BME280_humidity;BME280_pressure;Samples;Min_cycle;Max_cycle;Signal;HPM_P1;HPM_P2
2022/07/02 00:00:58;;;;;;;10.07;1.50;;;;;;;19.22;45.54;101593.56;5078883;28;20056;-64
2022/07/02 00:03:32;;;;;;;3.75;1.17;;;;;;;19.12;46.25;101589.28;5058974;28;20051;-64
2022/07/02 00:06:01;;;;;;;7.07;2.08;;;;;;;19.25;45.55;101590.09;5087997;28;20059;-64
2022/07/02 00:08:29;;;;;;;7.35;2.17;;;;;;;19.14;45.31;101594.50;5058677;28;20049;-65
2022/07/02 00:10:58;;;;;;;4.65;2.00;;;;;;;18.71;46.95;101600.63;5076357;28;20052;-65
2022/07/02 00:13:27;;;;;;;6.78;1.80;;;;;;;19.04;46.47;101595.78;5065562;28;20044;-65
2022/07/02 00:15:55;;;;;;;6.70;2.08;;;;;;;19.19;46.64;101595.09;5080866;28;20056;-64
2022/07/02 00:18:22;;;;;;;7.28;1.85;;;;;;;19.41;46.39;101603.00;5082111;28;20063;-64
2022/07/02 00:20:50;;;;;;;6.07;1.92;;;;;;;18.45;48.34;101597.34;5088424;28;20055;-65
2022/07/02 00:23:17;;;;;;;5.22;1.75;;;;;;;18.49;47.72;101606.66;5079011;28;20047;-65
2022/07/02 00:25:53;;;;;;;7.70;2.22;;;;;;;18.74;47.73;101602.75;5068388;28;20063;-65
2022/07/02 00:28:23;;;;;;;5.85;1.92;;;;;;;18.53;49.11;101605.59;5074890;28;20044;-64
2022/07/02 00:30:51;;;;;;;6.10;1.98;;;;;;;18.76;48.56;101606.00;5057389;28;20063;-65
2022/07/02 00:33:19;;;;;;;5.07;1.75;;;;;;;18.75;49.00;101598.78;5075126;28;20044;-66
2022/07/02 00:35:47;;;;;;;9.57;2.30;;;;;;;19.02;47.99;101607.31;5082562;28;20052;-64
2022/07/02 00:38:14;;;;;;;8.05;2.00;;;;;;;19.03;48.52;101596.97;5082227;28;20047;-64
2022/07/02 00:40:43;;;;;;;5.63;1.88;;;;;;;19.00;47.71;101592.88;5066523;28;20066;-64
2022/07/02 00:43:10;;;;;;;5.35;1.85;;;;;;;19.17;47.67;101594.63;5073845;28;20043;-65
2022/07/02 00:45:38;;;;;;;4.95;1.80;;;;;;;19.04;48.12;101590.19;5040163;28;20048;-63
2022/07/02 00:48:05;;;;;;;6.95;2.20;;;;;;;19.06;48.21;101593.47;5070411;28;20049;-65
2022/07/02 00:50:33;;;;;;;3.80;1.60;;;;;;;19.19;47.94;101589.50;5079527;28;20055;-64
2022/07/02 00:53:00;;;;;;;5.53;1.90;;;;;;;19.03;48.06;101589.41;5080479;28;20051;-65
2022/07/02 00:55:27;;;;;;;4.65;2.13;;;;;;;19.05;48.45;101584.28;5081142;28;20060;-65
2022/07/02 00:57:55;;;;;;;6.10;1.95;;;;;;;19.07;48.37;101581.13;5072233;28;20060;-65
2022/07/02 01:00:22;;;;;;;5.15;2.05;;;;;;;19.07;48.39;101581.94;5069072;28;20696;-64
2022/07/02 01:02:50;;;;;;;4.28;1.80;;;;;;;18.92;48.93;101584.63;5070182;28;20040;-64
2022/07/02 01:05:19;;;;;;;5.10;1.70;;;;;;;19.01;49.06;101582.53;5084282;28;20492;-65
2022/07/02 01:10:47;;;;;;;5.10;2.05;;;;;;;19.10;49.00;101583.22;5079837;28;20052;-64
2022/07/02 01:13:15;;;;;;;7.28;2.00;;;;;;;19.08;49.23;101586.38;5081036;28;20107;-64
2022/07/02 01:15:42;;;;;;;5.80;2.10;;;;;;;19.05;49.06;101587.06;5061655;28;20052;-64
2022/07/02 01:18:17;;;;;;;5.60;2.08;;;;;;;18.85;49.73;101582.41;5059413;28;20051;-61
2022/07/02 01:20:45;;;;;;;4.85;1.83;;;;;;;18.65;50.33;101588.91;5080661;28;20052;-65
2022/07/02 01:23:12;;;;;;;6.28;2.10;;;;;;;18.64;50.39;101581.69;5079852;28;20036;-65
2022/07/02 01:25:40;;;;;;;6.65;1.88;;;;;;;18.70;50.30;101585.88;5081369;28;20048;-64
2022/07/02 01:28:07;;;;;;;4.47;1.80;;;;;;;18.89;50.01;101590.91;5062128;28;20048;-65
2022/07/02 01:30:34;;;;;;;8.55;2.38;;;;;;;18.88;49.94;101592.06;5086707;28;20048;-64
2022/07/02 01:33:02;;;;;;;5.30;2.00;;;;;;;18.94;49.45;101588.69;5084022;28;20849;-63
2022/07/02 01:35:30;;;;;;;4.53;1.80;;;;;;;18.86;49.77;101597.97;5082189;28;20636;-65
2022/07/02 01:37:57;;;;;;;4.70;1.90;;;;;;;18.67;49.81;101600.50;5082923;28;20048;-64
2022/07/02 01:40:25;;;;;;;4.65;1.75;;;;;;;18.72;50.28;101603.09;5077010;28;20037;-64
2022/07/02 01:42:52;;;;;;;4.25;1.70;;;;;;;18.76;50.63;101606.00;5089372;28;20530;-64
2022/07/02 01:45:19;;;;;;;4.63;1.73;;;;;;;18.71;50.71;101601.47;5078548;28;20057;-64
2022/07/02 01:47:47;;;;;;;4.97;1.80;;;;;;;18.61;50.57;101601.09;5085723;28;20142;-63
2022/07/02 01:50:14;;;;;;;7.53;2.00;;;;;;;18.61;51.14;101601.91;5078574;28;20051;-64
2022/07/02 01:52:42;;;;;;;5.63;1.60;;;;;;;18.53;51.21;101596.44;5070715;28;20064;-63
2022/07/02 01:55:09;;;;;;;4.63;1.80;;;;;;;18.53;51.26;101600.03;5081451;28;20055;-64
2022/07/02 01:57:36;;;;;;;3.65;1.70;;;;;;;18.63;51.15;101598.78;5080346;28;20053;-64
2022/07/02 02:00:06;;;;;;;5.05;1.73;;;;;;;18.57;50.88;101592.59;5063429;28;20411;-64
2022/07/02 02:02:33;;;;;;;4.80;2.07;;;;;;;18.52;51.32;101592.81;5075966;28;20044;-64
2022/07/02 02:05:00;;;;;;;4.95;1.70;;;;;;;18.68;50.96;101596.59;5072515;28;20691;-65
2022/07/02 02:07:28;;;;;;;5.78;1.88;;;;;;;18.50;51.31;101589.56;5086902;28;20055;-65
2022/07/02 02:09:57;;;;;;;6.55;1.63;;;;;;;18.52;51.50;101595.63;5087249;28;20047;-64
2022/07/02 02:12:24;;;;;;;7.65;1.50;;;;;;;18.52;51.15;101590.03;5078496;28;20048;-64
2022/07/02 02:14:51;;;;;;;3.95;1.80;;;;;;;18.41;51.78;101590.84;5081247;28;20534;-64
2022/07/02 02:17:19;;;;;;;3.85;1.65;;;;;;;18.38;51.60;101586.72;5087187;28;20047;-64
2022/07/02 02:19:46;;;;;;;8.18;1.90;;;;;;;18.51;51.61;101587.59;5075721;28;20053;-65
2022/07/02 02:22:13;;;;;;;4.35;1.42;;;;;;;18.23;51.89;101586.56;5086159;28;20482;-64
2022/07/02 02:24:41;;;;;;;4.90;1.50;;;;;;;18.17;51.95;101582.34;5081262;28;20059;-64
2022/07/02 02:27:09;;;;;;;4.93;2.03;;;;;;;18.29;51.85;101576.81;5040753;28;20060;-65
2022/07/02 02:29:37;;;;;;;5.30;1.67;;;;;;;18.07;52.27;101578.00;5071856;28;20056;-65
2022/07/02 02:32:05;;;;;;;5.57;1.60;;;;;;;18.08;52.58;101576.06;5070095;28;20048;-63
2022/07/02 02:34:33;;;;;;;3.97;1.50;;;;;;;18.20;52.54;101581.66;5075539;28;20430;-65
2022/07/02 02:37:00;;;;;;;7.43;2.00;;;;;;;18.33;52.08;101580.53;5079871;28;21005;-65
2022/07/02 02:39:27;;;;;;;4.68;1.70;;;;;;;18.26;52.37;101580.28;5079644;28;20059;-66
2022/07/02 02:41:55;;;;;;;4.38;1.52;;;;;;;18.24;52.47;101577.00;5090455;28;20052;-64
2022/07/02 02:44:22;;;;;;;5.93;1.63;;;;;;;18.13;52.52;101573.03;5053318;28;20051;-66
2022/07/02 02:46:50;;;;;;;5.57;1.83;;;;;;;18.14;53.16;101574.66;5077578;28;20059;-65
2022/07/02 02:49:17;;;;;;;5.65;1.90;;;;;;;18.25;52.97;101570.28;5088198;28;20052;-64
2022/07/02 02:51:44;;;;;;;4.40;1.70;;;;;;;18.30;52.66;101570.91;5051812;28;20056;-64
2022/07/02 02:54:12;;;;;;;5.05;1.80;;;;;;;18.15;52.96;101573.53;5083182;28;20635;-64
2022/07/02 02:56:39;;;;;;;5.30;1.70;;;;;;;18.05;53.30;101571.97;5076288;28;20051;-64
2022/07/02 02:59:06;;;;;;;4.68;1.60;;;;;;;17.89;53.73;101569.00;5085387;28;20066;-64
2022/07/02 03:01:33;;;;;;;5.90;1.63;;;;;;;17.88;54.05;101561.81;5086979;28;20068;-64
2022/07/02 03:04:01;;;;;;;5.90;1.88;;;;;;;17.75;54.27;101571.25;5079310;28;20052;-64
2022/07/02 03:06:28;;;;;;;5.03;1.80;;;;;;;17.93;53.77;101572.75;5083915;28;20052;-64
2022/07/02 03:08:56;;;;;;;5.32;1.85;;;;;;;18.05;53.42;101571.13;5077539;28;20067;-64
2022/07/02 03:11:23;;;;;;;5.68;1.92;;;;;;;17.94;53.87;101565.16;5073176;28;20040;-64
2022/07/02 03:13:50;;;;;;;4.50;1.65;;;;;;;18.11;54.01;101573.41;5061850;28;20071;-63
2022/07/02 03:16:18;;;;;;;6.25;1.95;;;;;;;18.07;53.92;101572.44;5075832;28;20048;-64
2022/07/02 03:18:46;;;;;;;7.15;2.10;;;;;;;18.04;53.95;101575.09;5084772;28;20059;-64
2022/07/02 03:21:13;;;;;;;5.55;1.52;;;;;;;18.08;53.94;101578.84;5047137;28;20052;-64
2022/07/02 03:23:41;;;;;;;7.40;2.03;;;;;;;17.96;54.33;101574.84;5082790;28;20048;-64
2022/07/02 03:26:08;;;;;;;3.90;1.90;;;;;;;18.05;53.78;101576.72;5081381;28;20048;-64
2022/07/02 03:28:36;;;;;;;4.07;1.73;;;;;;;18.14;54.06;101575.50;5070182;28;20048;-64
2022/07/02 03:31:03;;;;;;;5.45;1.98;;;;;;;18.13;53.60;101573.03;5082494;28;20415;-65
2022/07/02 03:33:30;;;;;;;3.78;1.80;;;;;;;18.01;53.60;101573.00;5074233;28;20510;-64
2022/07/02 03:35:58;;;;;;;6.38;2.00;;;;;;;18.02;54.43;101572.66;5084080;28;20048;-63
2022/07/02 03:38:25;;;;;;;7.45;2.22;;;;;;;17.93;54.22;101569.94;5071786;28;20059;-65
2022/07/02 03:40:53;;;;;;;5.30;2.00;;;;;;;17.92;54.75;101573.88;5066661;28;20583;-64
2022/07/02 03:43:20;;;;;;;6.10;2.08;;;;;;;17.90;54.45;101567.03;5058992;28;20067;-64
2022/07/02 03:45:47;;;;;;;9.07;2.40;;;;;;;17.87;54.52;101571.31;5076065;28;20111;-63
2022/07/02 03:48:14;;;;;;;4.82;2.08;;;;;;;17.85;54.54;101572.81;5086819;28;20053;-64
2022/07/02 03:50:42;;;;;;;7.00;2.45;;;;;;;17.92;54.40;101578.66;5072205;28;20147;-64
2022/07/02 03:53:10;;;;;;;5.70;1.95;;;;;;;17.72;55.09;101579.47;5068886;28;20052;-64
2022/07/02 03:55:37;;;;;;;4.32;2.22;;;;;;;17.79;54.98;101583.34;5089250;28;20487;-62
2022/07/02 03:58:05;;;;;;;7.55;2.30;;;;;;;17.88;54.74;101586.91;5085017;28;20391;-62
2022/07/02 04:00:32;;;;;;;6.97;2.38;;;;;;;17.86;54.75;101580.00;5078102;28;20048;-64
2022/07/02 04:02:59;;;;;;;5.40;2.00;;;;;;;17.87;55.11;101576.06;5080622;28;20124;-62
2022/07/02 04:05:26;;;;;;;8.43;2.00;;;;;;;18.08;54.45;101578.84;5061671;28;20044;-62
2022/07/02 04:07:54;;;;;;;8.25;2.35;;;;;;;17.98;54.72;101572.53;5045018;28;20413;-64
2022/07/02 04:10:21;;;;;;;6.82;2.58;;;;;;;17.81;55.09;101583.84;5061947;28;20040;-62
2022/07/02 04:12:49;;;;;;;7.90;2.65;;;;;;;17.64;55.82;101572.81;5083656;28;20057;-63
2022/07/02 04:15:16;;;;;;;6.28;2.22;;;;;;;17.62;55.63;101575.16;5063323;28;20033;-64
2022/07/02 04:17:43;;;;;;;7.03;2.17;;;;;;;17.71;55.57;101584.22;5086218;28;20059;-64
2022/07/02 04:20:11;;;;;;;4.60;2.15;;;;;;;17.64;55.76;101574.81;5083132;28;20055;-62
2022/07/02 04:22:38;;;;;;;8.10;2.17;;;;;;;17.61;56.47;101575.47;5079111;28;20048;-62
2022/07/02 04:25:06;;;;;;;6.13;2.30;;;;;;;17.86;55.45;101580.84;5063196;28;20659;-62
2022/07/02 04:27:33;;;;;;;5.57;2.13;;;;;;;17.77;55.64;101582.88;5076045;28;20051;-64
2022/07/02 04:30:00;;;;;;;6.35;2.10;;;;;;;17.76;55.47;101581.25;5077656;28;20315;-62
2022/07/02 04:32:35;;;;;;;6.05;2.47;;;;;;;17.81;55.58;101574.66;5084093;28;20043;-62
2022/07/02 04:35:03;;;;;;;5.50;2.10;;;;;;;17.78;55.85;101576.13;5063987;28;20059;-62
2022/07/02 04:37:30;;;;;;;9.82;2.15;;;;;;;17.94;55.43;101576.31;5076440;28;20511;-62
2022/07/02 04:39:58;;;;;;;9.40;2.22;;;;;;;17.92;55.07;101579.47;5087869;28;20051;-64
2022/07/02 04:42:25;;;;;;;8.40;2.15;;;;;;;17.99;55.04;101584.50;5060063;28;20055;-63
2022/07/02 04:44:52;;;;;;;7.63;2.45;;;;;;;17.94;55.13;101579.94;5087452;28;20075;-63
2022/07/02 04:47:19;;;;;;;5.03;1.88;;;;;;;17.99;54.86;101582.50;5075014;28;20059;-64
2022/07/02 04:49:47;;;;;;;8.07;2.20;;;;;;;18.01;55.00;101575.78;5076057;28;20059;-63
2022/07/02 04:52:15;;;;;;;8.80;2.25;;;;;;;18.07;54.57;101580.81;5082793;28;20083;-64
2022/07/02 04:54:42;;;;;;;7.47;2.50;;;;;;;18.30;54.19;101579.25;5077164;28;20049;-64
2022/07/02 04:57:10;;;;;;;6.70;1.90;;;;;;;18.26;54.14;101583.06;5081546;28;20048;-63
2022/07/02 04:59:37;;;;;;;8.90;2.47;;;;;;;18.28;54.02;101575.19;5051508;28;20052;-64
2022/07/02 05:02:05;;;;;;;7.47;2.40;;;;;;;18.42;53.74;101572.91;5078417;28;20052;-64
2022/07/02 05:04:32;;;;;;;6.43;2.30;;;;;;;18.41;53.89;101568.50;5073658;28;20063;-63
2022/07/02 05:07:00;;;;;;;5.35;2.00;;;;;;;18.40;53.75;101576.06;5086633;28;20124;-64
2022/07/02 05:09:28;;;;;;;11.07;2.10;;;;;;;18.34;53.57;101573.81;5054496;28;20426;-64
2022/07/02 05:11:55;;;;;;;5.57;1.95;;;;;;;18.57;52.93;101578.66;5083554;28;20059;-65
2022/07/02 05:14:22;;;;;;;11.82;2.05;;;;;;;18.68;52.81;101579.00;5059454;28;20052;-65
2022/07/02 05:16:50;;;;;;;6.05;2.20;;;;;;;18.67;53.01;101580.19;5077749;28;20052;-64
2022/07/02 05:19:17;;;;;;;6.43;1.90;;;;;;;18.63;52.88;101580.06;5074417;28;20514;-64
2022/07/02 05:21:44;;;;;;;7.53;2.38;;;;;;;18.53;52.98;101572.13;5059734;28;20068;-64
2022/07/02 05:24:12;;;;;;;7.40;2.35;;;;;;;18.54;52.61;101581.31;5067686;28;20048;-66
2022/07/02 05:26:39;;;;;;;6.25;2.50;;;;;;;18.52;52.99;101572.47;5088640;28;20060;-64
2022/07/02 05:29:06;;;;;;;5.53;2.08;;;;;;;18.66;52.64;101578.53;5073796;28;20233;-64
2022/07/02 05:31:33;;;;;;;6.53;2.35;;;;;;;18.20;52.43;101581.66;5085213;28;20056;-64
2022/07/02 05:34:01;;;;;;;4.78;1.70;;;;;;;18.26;53.34;101592.25;5075521;28;20048;-64
2022/07/02 05:36:28;;;;;;;5.80;1.95;;;;;;;18.44;53.60;101587.34;5059309;28;20345;-64
2022/07/02 05:38:55;;;;;;;5.82;1.90;;;;;;;18.69;52.89;101587.03;5068180;28;20458;-64
2022/07/02 05:41:23;;;;;;;8.68;2.35;;;;;;;18.72;52.71;101586.38;5049869;28;20629;-65
2022/07/02 05:43:50;;;;;;;7.15;1.90;;;;;;;18.89;52.53;101577.75;5072363;28;20048;-64
2022/07/02 05:46:18;;;;;;;7.00;2.10;;;;;;;19.02;51.47;101578.59;5060789;28;20063;-63
2022/07/02 05:48:45;;;;;;;5.93;2.35;;;;;;;19.17;51.11;101577.88;5071325;28;20051;-65
2022/07/02 05:51:13;;;;;;;8.57;2.40;;;;;;;19.34;50.91;101576.81;5056485;28;20045;-65
2022/07/02 05:53:40;;;;;;;6.55;2.35;;;;;;;19.44;50.37;101577.16;5082589;28;20048;-65
2022/07/02 05:56:07;;;;;;;8.15;2.17;;;;;;;19.33;50.67;101578.81;5080012;28;20063;-65
2022/07/02 05:58:34;;;;;;;8.95;2.40;;;;;;;19.34;50.72;101580.44;5077132;28;20052;-64
2022/07/02 06:01:02;;;;;;;6.35;2.33;;;;;;;19.38;50.70;101573.00;5086011;28;20055;-64
2022/07/02 06:03:29;;;;;;;8.32;2.08;;;;;;;19.52;49.92;101587.41;5084268;28;20539;-65
2022/07/02 06:08:43;;;;;;;4.40;1.80;;;;;;;19.65;49.59;101579.81;5067344;28;20036;-65
2022/07/02 06:11:11;;;;;;;4.93;1.88;;;;;;;19.49;50.12;101581.69;5080267;28;20518;-64
2022/07/02 06:13:38;;;;;;;7.55;2.10;;;;;;;19.03;51.00;101581.03;5086493;28;20044;-63
2022/07/02 06:16:06;;;;;;;4.30;1.80;;;;;;;19.31;50.03;101583.94;5080273;28;20048;-64
2022/07/02 06:18:33;;;;;;;5.90;2.38;;;;;;;19.28;50.65;101586.59;5084648;28;20052;-64
2022/07/02 06:21:01;;;;;;;8.27;2.15;;;;;;;19.12;51.08;101582.88;5063176;28;20190;-64
2022/07/02 06:23:28;;;;;;;5.43;2.50;;;;;;;19.44;49.72;101581.94;5091854;28;20059;-64
2022/07/02 06:25:56;;;;;;;6.60;1.98;;;;;;;19.46;49.71;101587.97;5076023;28;20055;-66
2022/07/02 06:28:23;;;;;;;8.38;2.75;;;;;;;19.27;49.57;101585.78;5081122;28;20051;-65
2022/07/02 06:30:51;;;;;;;5.68;2.22;;;;;;;19.20;49.93;101579.94;5063976;28;20058;-64
2022/07/02 06:33:18;;;;;;;6.00;2.22;;;;;;;19.33;50.00;101580.78;5066309;28;20085;-65
2022/07/02 06:35:45;;;;;;;6.93;2.00;;;;;;;19.29;49.89;101582.63;5056414;28;20055;-65
2022/07/02 06:38:13;;;;;;;6.72;1.83;;;;;;;19.25;49.73;101579.72;5079688;28;20056;-64
2022/07/02 06:40:40;;;;;;;5.13;1.80;;;;;;;18.77;49.89;101582.53;5081902;28;20055;-64
2022/07/02 06:43:07;;;;;;;6.53;2.00;;;;;;;18.89;50.51;101580.56;5073804;28;20048;-64
2022/07/02 06:45:35;;;;;;;5.63;2.38;;;;;;;19.06;50.23;101571.94;5079726;28;20049;-65
2022/07/02 06:48:02;;;;;;;7.35;2.20;;;;;;;19.00;49.85;101572.53;5088295;28;20083;-64
2022/07/02 06:50:30;;;;;;;8.43;2.03;;;;;;;19.15;50.33;101573.78;5079131;28;20407;-64
2022/07/02 06:53:01;;;;;;;8.50;2.17;;;;;;;19.29;50.09;101574.25;5085859;28;20143;-64
2022/07/02 06:55:29;;;;;;;6.15;2.10;;;;;;;19.69;49.04;101572.31;5078170;28;20044;-65
2022/07/02 06:57:56;;;;;;;6.63;2.42;;;;;;;19.99;48.86;101577.25;5084700;28;20056;-63
2022/07/02 07:00:23;;;;;;;4.22;1.90;;;;;;;19.82;48.07;101583.09;5065563;28;20052;-64
2022/07/02 07:02:51;;;;;;;10.93;4.75;;;;;;;19.95;47.99;101573.50;5062142;28;20413;-64
2022/07/02 07:05:22;;;;;;;8.93;2.25;;;;;;;19.88;48.15;101576.09;5082557;28;20047;-64
2022/07/02 07:07:49;;;;;;;5.88;1.85;;;;;;;19.66;48.33;101576.66;5082774;28;20052;-66
2022/07/02 07:10:17;;;;;;;10.68;2.10;;;;;;;19.88;48.59;101569.69;5077257;28;20055;-64
2022/07/02 07:12:44;;;;;;;5.80;1.85;;;;;;;19.94;47.70;101580.28;5068423;28;20507;-65
2022/07/02 07:15:11;;;;;;;9.40;1.75;;;;;;;19.82;48.70;101571.13;5056530;28;20056;-66
2022/07/02 07:17:38;;;;;;;5.97;1.60;;;;;;;19.98;48.30;101569.19;5067640;28;20079;-65
2022/07/02 07:20:16;;;;;;;5.53;1.60;;;;;;;20.10;46.87;101569.94;5068074;28;20070;-64
2022/07/02 07:22:44;;;;;;;7.70;2.00;;;;;;;20.17;47.76;101565.75;5086147;28;20064;-64
2022/07/02 07:25:12;;;;;;;10.18;1.70;;;;;;;20.25;47.88;101564.78;5075288;28;20510;-63
2022/07/02 07:27:39;;;;;;;4.70;1.45;;;;;;;20.29;47.22;101558.13;5075803;28;20048;-65
2022/07/02 07:30:07;;;;;;;3.78;1.60;;;;;;;20.12;46.69;101564.81;5085430;28;20070;-65
2022/07/02 07:32:34;;;;;;;3.95;1.60;;;;;;;20.27;47.14;101560.47;5085721;28;20051;-65
2022/07/02 07:35:02;;;;;;;9.98;1.80;;;;;;;20.67;46.25;101555.53;5066705;28;20056;-65
2022/07/02 07:37:29;;;;;;;8.30;2.10;;;;;;;21.37;45.50;101548.06;5075187;28;20053;-63
2022/07/02 07:39:56;;;;;;;5.55;1.92;;;;;;;21.85;43.95;101544.72;5078119;28;20052;-64
2022/07/02 07:42:23;;;;;;;5.28;1.75;;;;;;;21.85;42.46;101552.31;5081964;28;20056;-64
2022/07/02 07:44:51;;;;;;;8.13;1.80;;;;;;;21.96;42.93;101547.75;5087490;28;20048;-65
2022/07/02 07:47:18;;;;;;;5.40;1.60;;;;;;;22.38;42.36;101540.16;5079816;28;20063;-64
2022/07/02 07:49:45;;;;;;;4.75;1.13;;;;;;;23.03;40.07;101532.47;5074323;28;20056;-65
2022/07/02 07:52:13;;;;;;;4.43;1.40;;;;;;;22.86;40.38;101544.22;5081344;28;20152;-65
2022/07/02 07:54:40;;;;;;;4.63;1.23;;;;;;;22.88;40.52;101544.66;5077461;28;20052;-64
2022/07/02 07:57:08;;;;;;;3.13;1.02;;;;;;;23.31;39.31;101541.34;5074663;28;20056;-65
2022/07/02 07:59:36;;;;;;;6.07;0.95;;;;;;;23.42;38.78;101536.69;5084645;28;20053;-63
2022/07/02 08:02:03;;;;;;;5.05;1.17;;;;;;;23.56;38.14;101533.25;5070303;28;20045;-63
2022/07/02 08:04:31;;;;;;;4.80;1.15;;;;;;;23.37;38.09;101534.22;5081143;28;20049;-62
2022/07/02 08:06:58;;;;;;;5.05;1.42;;;;;;;23.54;38.33;101532.84;5080405;28;20086;-63
2022/07/02 08:09:25;;;;;;;3.55;1.00;;;;;;;23.61;37.90;101530.91;5077953;28;20059;-62
2022/07/02 08:11:53;;;;;;;5.97;1.05;;;;;;;23.49;37.68;101533.16;5061196;28;20041;-64
2022/07/02 08:14:20;;;;;;;3.58;0.80;;;;;;;23.88;36.10;101529.66;5063356;28;20059;-63
2022/07/02 08:16:47;;;;;;;2.67;0.70;;;;;;;23.98;35.44;101539.41;5078561;28;20063;-62
2022/07/02 08:19:14;;;;;;;5.32;1.10;;;;;;;24.05;35.34;101531.09;5064221;28;20055;-64
2022/07/02 08:21:42;;;;;;;3.70;1.00;;;;;;;24.06;35.59;101525.06;5085178;28;20063;-65
2022/07/02 08:24:09;;;;;;;5.38;1.00;;;;;;;23.93;35.96;101531.31;5069457;28;20044;-63
2022/07/02 08:26:37;;;;;;;7.75;1.27;;;;;;;23.87;36.54;101530.84;5069517;28;20045;-66
2022/07/02 08:29:04;;;;;;;5.47;0.93;;;;;;;23.53;36.88;101529.22;5069486;28;20044;-63
2022/07/02 08:31:31;;;;;;;3.33;0.98;;;;;;;23.75;36.64;101530.28;5077063;28;20131;-67
2022/07/02 08:33:59;;;;;;;2.78;1.52;;;;;;;23.50;36.43;101529.16;5057090;28;20063;-63
2022/07/02 08:36:26;;;;;;;6.97;0.90;;;;;;;23.17;37.15;101532.69;5064420;28;20057;-63
2022/07/02 08:38:53;;;;;;;4.40;1.00;;;;;;;23.76;36.85;101531.91;5054209;28;20616;-65
2022/07/02 08:41:22;;;;;;;3.75;0.90;;;;;;;23.49;36.92;101525.53;5073111;28;20057;-62
2022/07/02 08:43:51;;;;;;;3.50;0.80;;;;;;;23.40;36.91;101531.44;5058464;28;20063;-62
2022/07/02 08:46:18;;;;;;;6.88;1.08;;;;;;;23.20;36.48;101531.91;5078012;28;20044;-62
2022/07/02 08:48:46;;;;;;;5.63;1.00;;;;;;;23.50;36.83;101526.34;5078798;28;20059;-63
2022/07/02 08:51:14;;;;;;;5.70;1.05;;;;;;;23.46;36.30;101523.50;5060066;28;20064;-63
2022/07/02 08:53:42;;;;;;;3.38;0.70;;;;;;;23.54;37.11;101519.56;5079916;28;20506;-63
2022/07/02 08:56:09;;;;;;;6.10;0.98;;;;;;;23.41;36.59;101526.63;5068432;28;20064;-63
2022/07/02 08:58:38;;;;;;;6.28;1.27;;;;;;;23.40;37.13;101516.56;5073079;28;20044;-64
2022/07/02 09:01:09;;;;;;;3.80;0.70;;;;;;;23.51;35.94;101516.72;5059298;28;20701;-63
2022/07/02 09:03:38;;;;;;;2.67;0.80;;;;;;;23.38;36.93;101516.94;5062782;28;20040;-62
2022/07/02 09:06:06;;;;;;;3.53;0.68;;;;;;;23.25;36.07;101518.34;5082020;28;20435;-66
2022/07/02 09:08:35;;;;;;;5.38;0.80;;;;;;;23.36;35.60;101518.53;5082891;28;20048;-63
2022/07/02 09:11:02;;;;;;;2.08;0.68;;;;;;;23.38;35.46;101518.94;5079163;28;20064;-67
2022/07/02 09:13:31;;;;;;;1.55;0.55;;;;;;;23.16;35.02;101502.94;5055835;28;20056;-65
2022/07/02 09:15:58;;;;;;;2.70;0.60;;;;;;;22.94;35.83;101504.63;5074088;28;20048;-64
2022/07/02 09:18:26;;;;;;;3.80;1.00;;;;;;;23.13;35.79;101512.13;5071617;28;20048;-64
2022/07/02 09:20:54;;;;;;;3.33;0.90;;;;;;;23.24;36.09;101507.50;5066177;28;20052;-64
2022/07/02 09:23:22;;;;;;;2.45;0.88;;;;;;;23.18;35.92;101506.19;5058101;28;20048;-63
2022/07/02 09:25:50;;;;;;;6.47;1.08;;;;;;;23.24;36.48;101505.47;5073904;28;20060;-64
2022/07/02 09:28:18;;;;;;;4.40;0.82;;;;;;;22.99;36.44;101509.94;5050699;28;20144;-63
2022/07/02 09:30:45;;;;;;;3.88;0.85;;;;;;;22.83;37.55;101500.84;5074066;28;20054;-63
2022/07/02 09:33:29;;;;;;;3.60;0.80;;;;;;;23.48;37.06;101497.78;5062943;28;20041;-64
2022/07/02 09:36:01;;;;;;;3.80;0.80;;;;;;;23.07;36.01;101499.59;5055893;28;20061;-63
2022/07/02 09:38:28;;;;;;;5.10;1.10;;;;;;;23.20;36.78;101487.75;5085713;28;20053;-64
2022/07/02 09:40:59;;;;;;;3.53;1.00;;;;;;;23.14;37.49;101488.44;5057580;28;20661;-65
2022/07/02 09:43:31;;;;;;;4.45;0.75;;;;;;;23.41;38.09;101498.53;5064131;28;20130;-65
2022/07/02 09:45:59;;;;;;;5.15;1.13;;;;;;;23.47;37.32;101488.53;5057878;28;20068;-62
2022/07/02 09:48:28;;;;;;;5.05;0.80;;;;;;;23.41;37.00;101487.28;5071581;28;20048;-63
2022/07/02 09:51:02;;;;;;;1.60;0.60;;;;;;;23.33;36.13;101488.34;5077299;28;20056;-63
2022/07/02 09:53:30;;;;;;;3.17;0.68;;;;;;;23.55;37.05;101484.63;5065636;28;20056;-62
2022/07/02 09:55:57;;;;;;;1.90;0.60;;;;;;;23.56;34.99;101488.25;5066069;28;20052;-62
2022/07/02 09:58:26;;;;;;;3.65;0.68;;;;;;;23.30;37.20;101495.56;5073929;28;20051;-62
2022/07/02 10:00:55;;;;;;;2.30;0.60;;;;;;;23.47;35.41;101488.53;5076468;28;20053;-64
2022/07/02 10:03:22;;;;;;;6.15;0.80;;;;;;;23.72;36.67;101492.47;5026379;28;20448;-66
2022/07/02 10:05:52;;;;;;;6.82;0.80;;;;;;;24.00;35.23;101487.22;5022763;28;20167;-65
2022/07/02 10:08:20;;;;;;;;;;;;;;;23.83;34.93;101475.72;5075691;28;20475;-65
2022/07/02 10:10:48;;;;;;;3.75;0.90;;;;;;;23.60;34.88;101477.84;5071740;28;19919;-65
2022/07/02 10:13:16;;;;;;;2.10;0.90;;;;;;;23.77;34.93;101480.06;5072642;28;20045;-65
2022/07/02 10:15:46;;;;;;;2.28;0.90;;;;;;;23.85;34.70;101468.50;5059157;28;20052;-65
2022/07/02 10:18:14;;;;;;;4.18;1.10;;;;;;;24.02;35.52;101469.94;5077310;28;20060;-65
2022/07/02 10:20:41;;;;;;;5.05;0.93;;;;;;;23.92;36.34;101456.53;5056954;28;20059;-65
2022/07/02 10:23:09;;;;;;;3.35;0.80;;;;;;;24.07;35.83;101461.97;5046175;28;20059;-65
2022/07/02 10:25:37;;;;;;;3.53;0.90;;;;;;;23.55;33.73;101458.50;5060185;28;20048;-66
2022/07/02 10:28:06;;;;;;;5.93;0.95;;;;;;;23.33;35.13;101452.63;5090315;28;20052;-65
2022/07/02 10:30:33;;;;;;;3.00;0.70;;;;;;;23.75;35.21;101452.31;5053704;28;20040;-66
2022/07/02 10:33:52;;;;;;;2.92;0.75;;;;;;;23.37;35.23;101447.84;5056410;28;20055;-66
2022/07/02 10:36:21;;;;;;;7.28;1.00;;;;;;;23.37;36.44;101452.66;4993365;28;20451;-64
2022/07/02 10:38:59;;;;;;;4.17;0.90;;;;;;;23.04;36.47;101456.22;4959104;28;20050;-65
2022/07/02 10:41:31;;;;;;;3.30;0.70;;;;;;;23.10;35.40;101451.84;5047296;28;20063;-66
2022/07/02 10:43:59;;;;;;;3.22;0.80;;;;;;;22.92;36.66;101447.19;5062656;28;20049;-65
2022/07/02 10:46:28;;;;;;;2.25;0.70;;;;;;;22.93;34.88;101448.78;5052160;28;20067;-65
2022/07/02 10:48:57;;;;;;;2.00;0.90;;;;;;;23.04;34.82;101444.16;5080028;28;20052;-64
2022/07/02 10:51:32;;;;;;;3.58;0.90;;;;;;;23.39;35.62;101439.84;5069173;28;20075;-65
2022/07/02 10:54:03;;;;;;;5.22;0.73;;;;;;;23.63;35.06;101434.88;5069940;28;20071;-65
2022/07/02 10:56:43;;;;;;;4.60;1.20;;;;;;;23.74;34.90;101431.03;5034005;28;20045;-64
2022/07/02 10:59:24;;;;;;;2.42;0.82;;;;;;;23.95;35.20;101438.88;5057504;28;20037;-65
2022/07/02 11:02:11;;;;;;;2.50;0.93;;;;;;;24.00;35.05;101430.91;5064079;28;20051;-64
2022/07/02 11:04:38;;;;;;;4.80;0.93;;;;;;;24.17;36.89;101430.28;5040683;28;20059;-66
2022/07/02 11:07:12;;;;;;;1.65;0.75;;;;;;;24.22;35.77;101431.91;5084628;28;20052;-65
2022/07/02 11:09:46;;;;;;;4.70;1.65;;;;;;;24.54;34.86;101430.19;5072512;28;20061;-66
2022/07/02 11:12:18;;;;;;;2.88;0.95;;;;;;;23.86;32.69;101432.75;5063564;28;20041;-64
2022/07/02 11:14:56;;;;;;;4.93;0.98;;;;;;;23.95;34.73;101431.25;5074847;28;20051;-66
2022/07/02 11:17:47;;;;;;;3.97;0.88;;;;;;;23.90;33.08;101437.19;5074298;28;20052;-65
2022/07/02 11:20:22;;;;;;;6.20;2.22;;;;;;;24.18;35.12;101437.50;5056605;28;20059;-67
2022/07/02 11:22:49;;;;;;;2.47;1.05;;;;;;;24.32;32.74;101431.22;5087171;28;20061;-66
2022/07/02 11:25:16;;;;;;;2.88;1.13;;;;;;;24.37;33.28;101428.84;5048124;28;20049;-65
2022/07/02 11:27:54;;;;;;;8.35;1.33;;;;;;;24.19;33.01;101430.69;5079166;28;20041;-66
2022/07/02 11:30:29;;;;;;;4.03;1.00;;;;;;;24.44;32.84;101428.09;5086577;28;20056;-67
2022/07/02 11:32:57;;;;;;;2.80;0.80;;;;;;;23.79;33.83;101427.84;5081099;28;20051;-65
2022/07/02 11:35:24;;;;;;;2.33;0.80;;;;;;;23.92;34.28;101415.13;5059281;28;20052;-66